Aviation Digital Data Service (ADDS)

Output produced by METARs form (0034 UTC 03 March 2015)
found at http://aviationweather.gov/adds/metars/
 
KLBT 022320Z 0300/0324 03006KT P6SM SCT025 
     FM030400 07008KT P6SM BKN050 
     FM031400 08008KT P6SM VCSH OVC025 
     FM031800 10008KT 5SM -RA BR BKN016